Home > Products > Valid Products > TAF

000
FTUS42 KRAH 272339
TAFRDU
TAF
KRDU 272339Z 2800/2824 34006KT P6SM SKC
      TEMPO 2804/2808 SCT030=



000
FTUS42 KRAH 272339
TAFRWI
TAF
KRWI 272339Z 2800/2824 33008KT P6SM FEW060
      TEMPO 2803/2807 SCT025
     FM281300 35011KT P6SM SKC=



000
FTUS42 KRAH 272339
TAFINT
TAF
KINT 272339Z 2800/2824 33007KT P6SM FEW250
      TEMPO 2800/2804 32008G16KT BKN100=



000
FTUS42 KRAH 272339
TAFGSO
TAF
KGSO 272339Z 2800/2824 33007KT P6SM FEW250
      TEMPO 2800/2804 32008G16KT BKN100=



000
FTUS42 KRAH 272339
TAFFAY
TAF
KFAY 272339Z 2800/2824 34006KT P6SM SKC
      TEMPO 2804/2808 SCT025
     FM281300 34010KT P6SM SKC=



000
FTUS42 KRAH 272339
TAFFAY
TAF
KFAY 272339Z 2800/2824 34006KT P6SM SKC
      TEMPO 2804/2808 SCT025
     FM281300 34010KT P6SM SKC=



000
FTUS42 KRAH 272339
TAFINT
TAF
KINT 272339Z 2800/2824 33007KT P6SM FEW250
      TEMPO 2800/2804 32008G16KT BKN100=



000
FTUS42 KRAH 272339
TAFRDU
TAF
KRDU 272339Z 2800/2824 34006KT P6SM SKC
      TEMPO 2804/2808 SCT030=



000
FTUS42 KRAH 272339
TAFGSO
TAF
KGSO 272339Z 2800/2824 33007KT P6SM FEW250
      TEMPO 2800/2804 32008G16KT BKN100=



000
FTUS42 KRAH 272339
TAFRWI
TAF
KRWI 272339Z 2800/2824 33008KT P6SM FEW060
      TEMPO 2803/2807 SCT025
     FM281300 35011KT P6SM SKC=



000
FTUS42 KRAH 272240 AAA
TAFGSO
TAF AMD
KGSO 272240Z 2723/2818 31011KT P6SM SKC
     FM280000 33006KT P6SM FEW150=



000
FTUS42 KRAH 272240 AAA
TAFGSO
TAF AMD
KGSO 272240Z 2723/2818 31011KT P6SM SKC
     FM280000 33006KT P6SM FEW150=



000
FTUS42 KRAH 272037 AAA
TAFRWI
TAF AMD
KRWI 272037Z 2721/2818 33008KT P6SM BKN035=



000
FTUS42 KRAH 272037 AAA
TAFRWI
TAF AMD
KRWI 272037Z 2721/2818 33008KT P6SM BKN035=



000
FTUS42 KRAH 271730
TAFGSO
TAF
KGSO 271730Z 2718/2818 33007KT P6SM SCT050=



000
FTUS42 KRAH 271730
TAFFAY
TAF
KFAY 271730Z 2718/2818 36008KT P6SM SCT050=



000
FTUS42 KRAH 271730
TAFINT
TAF
KINT 271730Z 2718/2818 33008KT P6SM SCT050=



000
FTUS42 KRAH 271730
TAFRDU
TAF
KRDU 271730Z 2718/2818 33007KT P6SM SCT050=



000
FTUS42 KRAH 271730
TAFINT
TAF
KINT 271730Z 2718/2818 33008KT P6SM SCT050=



000
FTUS42 KRAH 271730
TAFRDU
TAF
KRDU 271730Z 2718/2818 33007KT P6SM SCT050=



000
FTUS42 KRAH 271730
TAFRWI
TAF
KRWI 271730Z 2718/2818 35010KT P6SM BKN025
     FM272100 33012KT P6SM BKN035=



000
FTUS42 KRAH 271730
TAFGSO
TAF
KGSO 271730Z 2718/2818 33007KT P6SM SCT050=



000
FTUS42 KRAH 271730
TAFRWI
TAF
KRWI 271730Z 2718/2818 35010KT P6SM BKN025
     FM272100 33012KT P6SM BKN035=



000
FTUS42 KRAH 271730
TAFFAY
TAF
KFAY 271730Z 2718/2818 36008KT P6SM SCT050=



000
FTUS42 KRAH 271612 AAD
TAFRWI
TAF AMD
KRWI 271612Z 2716/2812 35010KT P6SM SCT015 BKN060
      TEMPO 2716/2718 BKN015
     FM271800 33012KT P6SM BKN035 OVC150
     FM280000 35004KT P6SM OVC100=



000
FTUS42 KRAH 271612 AAD
TAFRWI
TAF AMD
KRWI 271612Z 2716/2812 35010KT P6SM SCT015 BKN060
      TEMPO 2716/2718 BKN015
     FM271800 33012KT P6SM BKN035 OVC150
     FM280000 35004KT P6SM OVC100=



000
FTUS42 KRAH 271505 AAA
TAFINT
TAF AMD
KINT 271505Z 2715/2812 32012G22KT P6SM SCT050
     FM280000 34008KT P6SM SKC=



000
FTUS42 KRAH 271505 AAA
TAFINT
TAF AMD
KINT 271505Z 2715/2812 32012G22KT P6SM SCT050
     FM280000 34008KT P6SM SKC=



000
FTUS42 KRAH 271504 AAA
TAFGSO
TAF AMD
KGSO 271504Z 2715/2812 32010G20KT P6SM SCT050
     FM280000 34006KT P6SM SKC=



000
FTUS42 KRAH 271504 AAA
TAFGSO
TAF AMD
KGSO 271504Z 2715/2812 32010G20KT P6SM SCT050
     FM280000 34006KT P6SM SKC=



000
FTUS42 KRAH 271503 AAC
TAFRWI
TAF AMD
KRWI 271503Z 2715/2812 35010KT P6SM SCT020 BKN060
     FM271800 33012KT P6SM BKN035 OVC150
     FM280000 35004KT P6SM OVC100=



000
FTUS42 KRAH 271503 AAC
TAFRWI
TAF AMD
KRWI 271503Z 2715/2812 35010KT P6SM SCT020 BKN060
     FM271800 33012KT P6SM BKN035 OVC150
     FM280000 35004KT P6SM OVC100=



000
FTUS42 KRAH 271502 AAA
TAFFAY
TAF AMD
KFAY 271502Z 2715/2812 32012KT P6SM BKN040
     FM280000 32005KT P6SM BKN250=



000
FTUS42 KRAH 271502 AAA
TAFFAY
TAF AMD
KFAY 271502Z 2715/2812 32012KT P6SM BKN040
     FM280000 32005KT P6SM BKN250=



000
FTUS42 KRAH 271501 AAA
TAFRDU
TAF AMD
KRDU 271501Z 2715/2812 33008KT P6SM OVC050
     FM271800 33009G16KT P6SM BKN060
     FM280000 00000KT P6SM BKN250=



000
FTUS42 KRAH 271219 AAB
TAFRWI
TAF AMD
KRWI 271219Z 2712/2812 35006KT P6SM BKN060
     FM271400 33010G18KT P6SM BKN035 OVC150
     FM280000 35004KT P6SM OVC100=



000
FTUS42 KRAH 271219 AAB
TAFRWI
TAF AMD
KRWI 271219Z 2712/2812 35006KT P6SM BKN060
     FM271400 33010G18KT P6SM BKN035 OVC150
     FM280000 35004KT P6SM OVC100=



000
FTUS42 KRAH 271146 AAA
TAFRWI
TAF AMD
KRWI 271146Z 2712/2812 35006KT P6SM BKN021
     FM271400 33010G18KT P6SM BKN035 OVC150
     FM280000 35004KT P6SM OVC100=



000
FTUS42 KRAH 271128
TAFRWI
TAF
KRWI 271128Z 2712/2812 35006KT 6SM -SN BR OVC060
     FM271400 33010G18KT P6SM BKN035 OVC150
     FM280000 35004KT P6SM OVC100=



000
FTUS42 KRAH 271128
TAFRDU
TAF
KRDU 271128Z 2712/2812 VRB05KT P6SM OVC035
     FM271500 33009G16KT P6SM SCT250
     FM280000 00000KT P6SM BKN250=



000
FTUS42 KRAH 271128
TAFGSO
TAF
KGSO 271128Z 2712/2812 34003KT P6SM FEW070
     FM271500 33008G15KT P6SM FEW250
     FM280000 34007KT P6SM SKC=



000
FTUS42 KRAH 271128
TAFINT
TAF
KINT 271128Z 2712/2812 28003KT P6SM FEW070
     FM271500 33008G15KT P6SM FEW250
     FM280000 34008KT P6SM SKC=



000
FTUS42 KRAH 271128
TAFFAY
TAF
KFAY 271128Z 2712/2812 34008KT P6SM BKN035
     FM271500 33010G18KT P6SM FEW035 BKN250
     FM280000 32005KT P6SM BKN250=



000
FTUS42 KRAH 271128
TAFINT
TAF
KINT 271128Z 2712/2812 28003KT P6SM FEW070
     FM271500 33008G15KT P6SM FEW250
     FM280000 34008KT P6SM SKC=



000
FTUS42 KRAH 271128
TAFRWI
TAF
KRWI 271128Z 2712/2812 35006KT 6SM -SN BR OVC060
     FM271400 33010G18KT P6SM BKN035 OVC150
     FM280000 35004KT P6SM OVC100=



000
FTUS42 KRAH 271128
TAFFAY
TAF
KFAY 271128Z 2712/2812 34008KT P6SM BKN035
     FM271500 33010G18KT P6SM FEW035 BKN250
     FM280000 32005KT P6SM BKN250=



000
FTUS42 KRAH 271128
TAFGSO
TAF
KGSO 271128Z 2712/2812 34003KT P6SM FEW070
     FM271500 33008G15KT P6SM FEW250
     FM280000 34007KT P6SM SKC=



000
FTUS42 KRAH 271128
TAFRDU
TAF
KRDU 271128Z 2712/2812 VRB05KT P6SM OVC035
     FM271500 33009G16KT P6SM SCT250
     FM280000 00000KT P6SM BKN250=



000
FTUS42 KRAH 271048 AAA
TAFRWI
TAF AMD
KRWI 271048Z 2711/2806 32006KT P6SM BKN008
     FM271200 33010G18KT P6SM BKN035 OVC150
     FM280000 35004KT P6SM OVC100=



000
FTUS42 KRAH 270854 AAB
TAFRDU
TAF AMD
KRDU 270854Z 2709/2806 32006KT P6SM OVC035
     FM271500 33009G16KT P6SM SCT250
     FM280000 00000KT P6SM BKN250=



000
FTUS42 KRAH 270854 AAB
TAFRDU
TAF AMD
KRDU 270854Z 2709/2806 32006KT P6SM OVC035
     FM271500 33009G16KT P6SM SCT250
     FM280000 00000KT P6SM BKN250=



000
FTUS42 KRAH 270847 AAA
TAFRDU
TAF AMD
KRDU 270847Z 2709/2806 32006KT 5SM BR BKN015
     FM271000 32006KT P6SM OVC035
     FM271500 33009G16KT P6SM SCT250
     FM280000 00000KT P6SM BKN250=



000
FTUS42 KRAH 270847 AAA
TAFRDU
TAF AMD
KRDU 270847Z 2709/2806 32006KT 5SM BR BKN015
     FM271000 32006KT P6SM OVC035
     FM271500 33009G16KT P6SM SCT250
     FM280000 00000KT P6SM BKN250=



000
FTUS42 KRAH 270847 AAA
TAFGSO
TAF AMD
KGSO 270847Z 2709/2806 31006KT P6SM FEW070
     FM271500 33008G15KT P6SM FEW250
     FM280000 34007KT P6SM SKC=



000
FTUS42 KRAH 270847 AAA
TAFGSO
TAF AMD
KGSO 270847Z 2709/2806 31006KT P6SM FEW070
     FM271500 33008G15KT P6SM FEW250
     FM280000 34007KT P6SM SKC=



000
FTUS42 KRAH 270532
TAFFAY
TAF
KFAY 270532Z 2706/2806 33007KT P6SM OVC025
     FM270900 33006KT P6SM BKN035 BKN150
     FM271500 33010G18KT P6SM FEW035 BKN250
     FM280000 32005KT P6SM BKN250=



000
FTUS42 KRAH 270532
TAFRWI
TAF
KRWI 270532Z 2706/2806 33013G20KT P6SM OVC015
     FM271200 33010G18KT P6SM BKN035 OVC150
     FM280000 35004KT P6SM OVC100=



000
FTUS42 KRAH 270532
TAFINT
TAF
KINT 270532Z 2706/2806 33008KT P6SM OVC070
     FM271500 33008G15KT P6SM FEW250
     FM280000 34008KT P6SM SKC=



000
FTUS42 KRAH 270532
TAFRDU
TAF
KRDU 270532Z 2706/2806 35006KT P6SM OVC015
     FM270900 35006KT P6SM BKN035 BKN150
     FM271500 33009G16KT P6SM SCT250
     FM280000 00000KT P6SM BKN250=



000
FTUS42 KRAH 270532
TAFGSO
TAF
KGSO 270532Z 2706/2806 33008KT P6SM OVC070
     FM271500 33008G15KT P6SM FEW250
     FM280000 34007KT P6SM SKC=



000
FTUS42 KRAH 270532
TAFRDU
TAF
KRDU 270532Z 2706/2806 35006KT P6SM OVC015
     FM270900 35006KT P6SM BKN035 BKN150
     FM271500 33009G16KT P6SM SCT250
     FM280000 00000KT P6SM BKN250=



000
FTUS42 KRAH 270532
TAFRWI
TAF
KRWI 270532Z 2706/2806 33013G20KT P6SM OVC015
     FM271200 33010G18KT P6SM BKN035 OVC150
     FM280000 35004KT P6SM OVC100=



000
FTUS42 KRAH 270532
TAFGSO
TAF
KGSO 270532Z 2706/2806 33008KT P6SM OVC070
     FM271500 33008G15KT P6SM FEW250
     FM280000 34007KT P6SM SKC=



000
FTUS42 KRAH 270532
TAFFAY
TAF
KFAY 270532Z 2706/2806 33007KT P6SM OVC025
     FM270900 33006KT P6SM BKN035 BKN150
     FM271500 33010G18KT P6SM FEW035 BKN250
     FM280000 32005KT P6SM BKN250=



000
FTUS42 KRAH 270532
TAFINT
TAF
KINT 270532Z 2706/2806 33008KT P6SM OVC070
     FM271500 33008G15KT P6SM FEW250
     FM280000 34008KT P6SM SKC=



000
FTUS42 KRAH 270152 AAA
TAFFAY
TAF AMD
KFAY 270152Z 2702/2724 32007KT P6SM OVC035
     FM271500 33010G18KT P6SM FEW035 BKN250=



000
FTUS42 KRAH 270152 AAA
TAFFAY
TAF AMD
KFAY 270152Z 2702/2724 32007KT P6SM OVC035
     FM271500 33010G18KT P6SM FEW035 BKN250=



000
FTUS42 KRAH 270150 AAA
TAFGSO
TAF AMD
KGSO 270150Z 2702/2724 33008KT P6SM BKN050 OVC150
      TEMPO 2702/2704 33011G19KT
     FM270900 33006KT P6SM SCT150
     FM271500 33008G15KT P6SM FEW250=



000
FTUS42 KRAH 270150 AAA
TAFGSO
TAF AMD
KGSO 270150Z 2702/2724 33008KT P6SM BKN050 OVC150
      TEMPO 2702/2704 33011G19KT
     FM270900 33006KT P6SM SCT150
     FM271500 33008G15KT P6SM FEW250=



000
FTUS42 KRAH 270147 AAA
TAFRDU
TAF AMD
KRDU 270147Z 2702/2724 35006KT P6SM OVC015
      TEMPO 2702/2704 6SM -RA
     FM270900 35006KT P6SM BKN035 BKN150
     FM271500 33009G16KT P6SM SCT250=



000
FTUS42 KRAH 270147 AAA
TAFRDU
TAF AMD
KRDU 270147Z 2702/2724 35006KT P6SM OVC015
      TEMPO 2702/2704 6SM -RA
     FM270900 35006KT P6SM BKN035 BKN150
     FM271500 33009G16KT P6SM SCT250=



000
FTUS42 KRAH 262342 CCA
TAFRWI
TAF COR
KRWI 262342Z 2700/2724 33009KT P6SM OVC015
     FM271200 33010G18KT P6SM BKN035 OVC150=



000
FTUS42 KRAH 262334
TAFRWI
TAF
KRWI 262334Z 2700/2724 33009KT P6SM OVC025
     FM271200 33010G18KT P6SM BKN035 OVC150=



000
FTUS42 KRAH 262334
TAFRDU
TAF
KRDU 262334Z 2700/2724 35006KT P6SM OVC025
     FM270900 35006KT P6SM BKN035 BKN150
     FM271500 33009G16KT P6SM SCT250=



000
FTUS42 KRAH 262334
TAFINT
TAF
KINT 262334Z 2700/2724 33008KT P6SM BKN060 OVC150
     FM270900 33006KT P6SM SCT150
     FM271500 33008G15KT P6SM FEW250=



000
FTUS42 KRAH 262334
TAFFAY
TAF
KFAY 262334Z 2700/2724 33010KT P6SM OVC025
     FM270900 32007KT P6SM OVC050
     FM271500 33010G18KT P6SM FEW035 BKN250=



000
FTUS42 KRAH 262334
TAFGSO
TAF
KGSO 262334Z 2700/2724 33008KT P6SM BKN060 OVC150
     FM270900 33006KT P6SM SCT150
     FM271500 33008G15KT P6SM FEW250=



000
FTUS42 KRAH 262334
TAFRDU
TAF
KRDU 262334Z 2700/2724 35006KT P6SM OVC025
     FM270900 35006KT P6SM BKN035 BKN150
     FM271500 33009G16KT P6SM SCT250=



000
FTUS42 KRAH 262334
TAFRWI
TAF
KRWI 262334Z 2700/2724 33009KT P6SM OVC025
     FM271200 33010G18KT P6SM BKN035 OVC150=



000
FTUS42 KRAH 262334
TAFFAY
TAF
KFAY 262334Z 2700/2724 33010KT P6SM OVC025
     FM270900 32007KT P6SM OVC050
     FM271500 33010G18KT P6SM FEW035 BKN250=



000
FTUS42 KRAH 262334
TAFGSO
TAF
KGSO 262334Z 2700/2724 33008KT P6SM BKN060 OVC150
     FM270900 33006KT P6SM SCT150
     FM271500 33008G15KT P6SM FEW250=



000
FTUS42 KRAH 262334
TAFINT
TAF
KINT 262334Z 2700/2724 33008KT P6SM BKN060 OVC150
     FM270900 33006KT P6SM SCT150
     FM271500 33008G15KT P6SM FEW250=



000
FTUS42 KRAH 262029 AAA
TAFRWI
TAF AMD
KRWI 262029Z 2620/2718 32007KT P6SM SCT015 BKN050
     FM262300 35009KT P6SM OVC015
     FM271200 33009KT P6SM BKN050=



000
FTUS42 KRAH 262027 AAA
TAFGSO
TAF AMD
KGSO 262027Z 2620/2718 32010G18KT P6SM BKN035
     FM270600 33008KT P6SM BKN050=



000
FTUS42 KRAH 262027 AAA
TAFGSO
TAF AMD
KGSO 262027Z 2620/2718 32010G18KT P6SM BKN035
     FM270600 33008KT P6SM BKN050=



000
FTUS42 KRAH 262026 AAA
TAFRDU
TAF AMD
KRDU 262026Z 2620/2718 35005KT P6SM BKN015 OVC035
      TEMPO 2620/2623 P6SM -SHRA BKN025
     FM270000 35006KT P6SM OVC025
     FM270900 35006KT P6SM BKN050=



000
FTUS42 KRAH 262026 AAA
TAFRDU
TAF AMD
KRDU 262026Z 2620/2718 35005KT P6SM BKN015 OVC035
      TEMPO 2620/2623 P6SM -SHRA BKN025
     FM270000 35006KT P6SM OVC025
     FM270900 35006KT P6SM BKN050=



000
FTUS42 KRAH 262024 AAA
TAFFAY
TAF AMD
KFAY 262024Z 2620/2718 35005KT P6SM OVC050
      TEMPO 2621/2624 BKN025
     FM270000 33010KT P6SM OVC025
     FM270900 32010KT P6SM OVC050
     FM271200 33009KT P6SM OVC250=



000
FTUS42 KRAH 262024 AAA
TAFFAY
TAF AMD
KFAY 262024Z 2620/2718 35005KT P6SM OVC050
      TEMPO 2621/2624 BKN025
     FM270000 33010KT P6SM OVC025
     FM270900 32010KT P6SM OVC050
     FM271200 33009KT P6SM OVC250=



000
FTUS42 KRAH 261737
TAFGSO
TAF
KGSO 261737Z 2618/2718 32010G22KT P6SM BKN050
     FM270600 33008KT P6SM BKN050=



000
FTUS42 KRAH 261737
TAFFAY
TAF
KFAY 261737Z 2618/2718 35005KT P6SM OVC050
     FM270600 33010KT P6SM OVC025
     FM270900 32010KT P6SM OVC050
     FM271200 33009KT P6SM OVC250=



000
FTUS42 KRAH 261737
TAFRDU
TAF
KRDU 261737Z 2618/2718 33006KT P6SM SCT015 OVC050
      TEMPO 2618/2621 P6SM -SHRA BKN015
     FM270300 35006KT P6SM OVC025
     FM270900 35006KT P6SM BKN050=



000
FTUS42 KRAH 261737
TAFRWI
TAF
KRWI 261737Z 2618/2718 36007KT P6SM SCT015 BKN050
      TEMPO 2618/2621 -SHRA BKN015
     FM270600 33009KT P6SM OVC025
     FM271200 33009KT P6SM BKN050=



000
FTUS42 KRAH 261737
TAFINT
TAF
KINT 261737Z 2618/2718 34010G22KT P6SM BKN050
     FM270600 33008KT P6SM BKN070=



000
FTUS42 KRAH 261737
TAFRWI
TAF
KRWI 261737Z 2618/2718 36007KT P6SM SCT015 BKN050
      TEMPO 2618/2621 -SHRA BKN015
     FM270600 33009KT P6SM OVC025
     FM271200 33009KT P6SM BKN050=



000
FTUS42 KRAH 261737
TAFINT
TAF
KINT 261737Z 2618/2718 34010G22KT P6SM BKN050
     FM270600 33008KT P6SM BKN070=



000
FTUS42 KRAH 261737
TAFGSO
TAF
KGSO 261737Z 2618/2718 32010G22KT P6SM BKN050
     FM270600 33008KT P6SM BKN050=



000
FTUS42 KRAH 261737
TAFFAY
TAF
KFAY 261737Z 2618/2718 35005KT P6SM OVC050
     FM270600 33010KT P6SM OVC025
     FM270900 32010KT P6SM OVC050
     FM271200 33009KT P6SM OVC250=



000
FTUS42 KRAH 261737
TAFRDU
TAF
KRDU 261737Z 2618/2718 33006KT P6SM SCT015 OVC050
      TEMPO 2618/2621 P6SM -SHRA BKN015
     FM270300 35006KT P6SM OVC025
     FM270900 35006KT P6SM BKN050=



000
FTUS42 KRAH 261410 AAA
TAFRDU
TAF AMD
KRDU 261410Z 2614/2712 00000KT P6SM OVC050
      TEMPO 2614/2616 3SM -RA BR BKN035
     FM261800 34006KT P6SM BKN035
     FM270000 34007G20KT P6SM BKN035
     FM270600 33006KT P6SM OVC050=



000
FTUS42 KRAH 261304 AAA
TAFRWI
TAF AMD
KRWI 261304Z 2613/2712 20004KT 5SM -RA BR BKN100
      TEMPO 2615/2618 -SHRA SCT025
     FM261800 34006KT P6SM -SHRA BKN025
     FM270000 33012G22KT P6SM OVC035
     FM270900 33013G19KT 4SM -SN BR OVC015=



000
FTUS42 KRAH 261304 AAA
TAFRWI
TAF AMD
KRWI 261304Z 2613/2712 20004KT 5SM -RA BR BKN100
      TEMPO 2615/2618 -SHRA SCT025
     FM261800 34006KT P6SM -SHRA BKN025
     FM270000 33012G22KT P6SM OVC035
     FM270900 33013G19KT 4SM -SN BR OVC015=



000
FTUS42 KRAH 261135
TAFFAY
TAF
KFAY 261135Z 2612/2712 00000KT P6SM OVC070
     FM261500 29007KT P6SM BKN035
      TEMPO 2615/2618 -SHRA SCT025
     FM270000 32012G22KT P6SM OVC035
     FM270700 31011KT P6SM OVC100=



000
FTUS42 KRAH 261135
TAFRDU
TAF
KRDU 261135Z 2612/2712 00000KT P6SM -RA OVC070
      TEMPO 2612/2614 3SM RA BKN008
     FM261800 34006KT P6SM -SHRA BKN025
     FM270000 34007G20KT P6SM BKN035
     FM270600 33006KT P6SM OVC050=



000
FTUS42 KRAH 261135
TAFRWI
TAF
KRWI 261135Z 2612/2712 33004KT P6SM -RA BKN100
      TEMPO 2615/2618 -SHRA SCT025
     FM261800 34006KT P6SM -SHRA BKN025
     FM270000 33012G22KT P6SM OVC035
     FM270900 33013G19KT 4SM -SN BR OVC015=



000
FTUS42 KRAH 261135
TAFINT
TAF
KINT 261135Z 2612/2712 00000KT P6SM -DZ OVC100
     FM261500 33006KT P6SM -SHRA OVC025
     FM270000 34011G20KT P6SM OVC035
     FM270600 33008KT P6SM OVC100=



000
FTUS42 KRAH 261135
TAFGSO
TAF
KGSO 261135Z 2612/2712 17006KT P6SM -DZ OVC100
     FM261500 33006KT P6SM -SHRA OVC025
     FM270000 34011G20KT P6SM OVC035
     FM270600 33008KT P6SM OVC100=



000
FTUS42 KRAH 261135
TAFGSO
TAF
KGSO 261135Z 2612/2712 17006KT P6SM -DZ OVC100
     FM261500 33006KT P6SM -SHRA OVC025
     FM270000 34011G20KT P6SM OVC035
     FM270600 33008KT P6SM OVC100=



000
FTUS42 KRAH 261135
TAFFAY
TAF
KFAY 261135Z 2612/2712 00000KT P6SM OVC070
     FM261500 29007KT P6SM BKN035
      TEMPO 2615/2618 -SHRA SCT025
     FM270000 32012G22KT P6SM OVC035
     FM270700 31011KT P6SM OVC100=



000
FTUS42 KRAH 261135
TAFINT
TAF
KINT 261135Z 2612/2712 00000KT P6SM -DZ OVC100
     FM261500 33006KT P6SM -SHRA OVC025
     FM270000 34011G20KT P6SM OVC035
     FM270600 33008KT P6SM OVC100=



000
FTUS42 KRAH 261135
TAFRDU
TAF
KRDU 261135Z 2612/2712 00000KT P6SM -RA OVC070
      TEMPO 2612/2614 3SM RA BKN008
     FM261800 34006KT P6SM -SHRA BKN025
     FM270000 34007G20KT P6SM BKN035
     FM270600 33006KT P6SM OVC050=



000
FTUS42 KRAH 261135
TAFRWI
TAF
KRWI 261135Z 2612/2712 33004KT P6SM -RA BKN100
      TEMPO 2615/2618 -SHRA SCT025
     FM261800 34006KT P6SM -SHRA BKN025
     FM270000 33012G22KT P6SM OVC035
     FM270900 33013G19KT 4SM -SN BR OVC015=



000
FTUS42 KRAH 260859 AAA
TAFINT
TAF AMD
KINT 260859Z 2609/2706 14003KT P6SM OVC150
     FM261500 33006KT P6SM -SHRA OVC025
     FM270000 34011G20KT P6SM OVC035=



000
FTUS42 KRAH 260859 AAA
TAFINT
TAF AMD
KINT 260859Z 2609/2706 14003KT P6SM OVC150
     FM261500 33006KT P6SM -SHRA OVC025
     FM270000 34011G20KT P6SM OVC035=



000
FTUS42 KRAH 260858 AAA
TAFRDU
TAF AMD
KRDU 260858Z 2609/2706 19003KT P6SM OVC100
     FM261800 34006KT P6SM -SHRA BKN025
     FM270000 34007G20KT P6SM BKN035=



000
FTUS42 KRAH 260857 AAA
TAFGSO
TAF AMD
KGSO 260857Z 2609/2706 13003KT P6SM OVC150
     FM261500 33006KT P6SM -SHRA OVC025
     FM270000 34011G20KT P6SM OVC035=



000
FTUS42 KRAH 260857 AAA
TAFGSO
TAF AMD
KGSO 260857Z 2609/2706 13003KT P6SM OVC150
     FM261500 33006KT P6SM -SHRA OVC025
     FM270000 34011G20KT P6SM OVC035=



000
FTUS42 KRAH 260609 CCA
TAFRWI
TAF COR
KRWI 260609Z 2606/2706 18004KT P6SM FEW250
     FM261200 00000KT 4SM BR BKN100 PROB30 2615/2618 -RA SCT025
     FM261800 34006KT P6SM -SHRA BKN025
     FM270000 33012G22KT P6SM OVC035=



000
FTUS42 KRAH 260538
TAFRWI
TAF
KRWI 260538Z 2606/2706 18004KT P6SM FEW250
     FM260600 00000KT 4SM BR BKN100 PROB30 2615/2618 -RA SCT025
     FM261800 34006KT P6SM -SHRA BKN025
     FM270000 33012G22KT P6SM OVC035=



000
FTUS42 KRAH 260538
TAFRDU
TAF
KRDU 260538Z 2606/2706 17006KT P6SM FEW250
     FM260600 19003KT P6SM OVC100 PROB30 2615/2618 -RA SCT025
     FM261800 34006KT P6SM -SHRA BKN025
     FM270000 34007G20KT P6SM BKN035=



000
FTUS42 KRAH 260538
TAFGSO
TAF
KGSO 260538Z 2606/2706 17006KT P6SM BKN150
     FM260900 14006KT 5SM -RA BR OVC030
     FM261500 33006KT P6SM -SHRA OVC025
     FM270000 34011G20KT P6SM OVC035=



000
FTUS42 KRAH 260538
TAFFAY
TAF
KFAY 260538Z 2606/2706 22006KT P6SM SCT250
     FM260900 19003KT P6SM OVC100
     FM261500 29007KT P6SM BKN035 PROB30 2615/2621 -SHRA SCT025
     FM270000 32012G22KT P6SM OVC035=



000
FTUS42 KRAH 260538
TAFINT
TAF
KINT 260538Z 2606/2706 17006KT P6SM BKN250
     FM260900 14006KT 5SM -RA BR OVC030
     FM261500 33006KT P6SM -SHRA OVC025
     FM270000 34011G20KT P6SM OVC035=



000
FTUS42 KRAH 260538
TAFINT
TAF
KINT 260538Z 2606/2706 17006KT P6SM BKN250
     FM260900 14006KT 5SM -RA BR OVC030
     FM261500 33006KT P6SM -SHRA OVC025
     FM270000 34011G20KT P6SM OVC035=



000
FTUS42 KRAH 260538
TAFFAY
TAF
KFAY 260538Z 2606/2706 22006KT P6SM SCT250
     FM260900 19003KT P6SM OVC100
     FM261500 29007KT P6SM BKN035 PROB30 2615/2621 -SHRA SCT025
     FM270000 32012G22KT P6SM OVC035=



000
FTUS42 KRAH 260538
TAFGSO
TAF
KGSO 260538Z 2606/2706 17006KT P6SM BKN150
     FM260900 14006KT 5SM -RA BR OVC030
     FM261500 33006KT P6SM -SHRA OVC025
     FM270000 34011G20KT P6SM OVC035=



000
FTUS42 KRAH 260538
TAFRDU
TAF
KRDU 260538Z 2606/2706 17006KT P6SM FEW250
     FM260600 19003KT P6SM OVC100 PROB30 2615/2618 -RA SCT025
     FM261800 34006KT P6SM -SHRA BKN025
     FM270000 34007G20KT P6SM BKN035=



000
FTUS42 KRAH 260538
TAFRWI
TAF
KRWI 260538Z 2606/2706 18004KT P6SM FEW250
     FM260600 00000KT 4SM BR BKN100 PROB30 2615/2618 -RA SCT025
     FM261800 34006KT P6SM -SHRA BKN025
     FM270000 33012G22KT P6SM OVC035=



000
FTUS42 KRAH 260148 AAA
TAFRDU
TAF AMD
KRDU 260148Z 2602/2624 17006KT P6SM FEW250
     FM260600 19003KT P6SM OVC100 PROB30 2612/2618 -RA SCT025
     FM261800 34006KT P6SM -SHRA BKN025=



000
FTUS42 KRAH 260148 AAA
TAFRDU
TAF AMD
KRDU 260148Z 2602/2624 17006KT P6SM FEW250
     FM260600 19003KT P6SM OVC100 PROB30 2612/2618 -RA SCT025
     FM261800 34006KT P6SM -SHRA BKN025=



000
FTUS42 KRAH 260148 AAA
TAFRDU
TAF AMD
KRDU 260148Z 2602/2624 17006KT P6SM FEW250
     FM260600 19003KT P6SM OVC100 PROB30 2612/2618 -RA SCT025
     FM261800 34006KT P6SM -SHRA BKN025=



000
FTUS42 KRAH 260147 AAA
TAFGSO
TAF AMD
KGSO 260147Z 2602/2624 17006KT P6SM BKN150
     FM260900 14006KT 5SM -RA BR OVC030
     FM261500 33006KT P6SM -SHRA OVC025=



000
FTUS42 KRAH 260147 AAA
TAFGSO
TAF AMD
KGSO 260147Z 2602/2624 17006KT P6SM BKN150
     FM260900 14006KT 5SM -RA BR OVC030
     FM261500 33006KT P6SM -SHRA OVC025=



000
FTUS42 KRAH 260147 AAA
TAFGSO
TAF AMD
KGSO 260147Z 2602/2624 17006KT P6SM BKN150
     FM260900 14006KT 5SM -RA BR OVC030
     FM261500 33006KT P6SM -SHRA OVC025=



000
FTUS42 KRAH 260147 AAA
TAFGSO
TAF AMD
KGSO 260147Z 2602/2624 17006KT P6SM BKN150
     FM260900 14006KT 5SM -RA BR OVC030
     FM261500 33006KT P6SM -SHRA OVC025=



000
FTUS42 KRAH 252330
TAFINT
TAF
KINT 252330Z 2600/2624 17006KT P6SM BKN250
     FM260900 14006KT 5SM -RA BR OVC030
     FM261500 33006KT P6SM -SHRA OVC025=



000
FTUS42 KRAH 252330
TAFRWI
TAF
KRWI 252330Z 2600/2624 18004KT P6SM FEW250
     FM260600 00000KT 4SM BR BKN100 PROB30 2612/2618 -RA SCT025
     FM261800 34006KT P6SM -SHRA BKN025=



000
FTUS42 KRAH 252330
TAFRDU
TAF
KRDU 252330Z 2600/2624 17006KT P6SM FEW250
     FM260600 19003KT P6SM OVC100 PROB30 2612/2618 -RA SCT025
     FM261800 34006KT P6SM -SHRA BKN025=



000
FTUS42 KRAH 252330
TAFGSO
TAF
KGSO 252330Z 2600/2624 17006KT P6SM BKN250
     FM260900 14006KT 5SM -RA BR OVC030
     FM261500 33006KT P6SM -SHRA OVC025=



000
FTUS42 KRAH 252330
TAFFAY
TAF
KFAY 252330Z 2600/2624 22006KT P6SM SCT250
     FM260900 19003KT P6SM OVC100
     FM261500 29007KT P6SM BKN035 PROB30 2615/2621 -SHRA SCT025=



000
FTUS42 KRAH 252330
TAFGSO
TAF
KGSO 252330Z 2600/2624 17006KT P6SM BKN250
     FM260900 14006KT 5SM -RA BR OVC030
     FM261500 33006KT P6SM -SHRA OVC025=



000
FTUS42 KRAH 252330
TAFINT
TAF
KINT 252330Z 2600/2624 17006KT P6SM BKN250
     FM260900 14006KT 5SM -RA BR OVC030
     FM261500 33006KT P6SM -SHRA OVC025=



000
FTUS42 KRAH 252330
TAFRWI
TAF
KRWI 252330Z 2600/2624 18004KT P6SM FEW250
     FM260600 00000KT 4SM BR BKN100 PROB30 2612/2618 -RA SCT025
     FM261800 34006KT P6SM -SHRA BKN025=



000
FTUS42 KRAH 252330
TAFRDU
TAF
KRDU 252330Z 2600/2624 17006KT P6SM FEW250
     FM260600 19003KT P6SM OVC100 PROB30 2612/2618 -RA SCT025
     FM261800 34006KT P6SM -SHRA BKN025=



000
FTUS42 KRAH 252330
TAFFAY
TAF
KFAY 252330Z 2600/2624 22006KT P6SM SCT250
     FM260900 19003KT P6SM OVC100
     FM261500 29007KT P6SM BKN035 PROB30 2615/2621 -SHRA SCT025=



000
FTUS42 KRAH 251738
TAFGSO
TAF
KGSO 251738Z 2518/2618 20008KT P6SM SCT250
     FM260300 18006KT P6SM OVC100
     FM260900 15005KT P6SM OVC025
     FM261100 21006KT 5SM -SHRA OVC012
     FM261500 33005KT P6SM OVC015=



000
FTUS42 KRAH 251738
TAFRDU
TAF
KRDU 251738Z 2518/2618 22007KT P6SM SKC
     FM260600 19008KT P6SM OVC100
     FM261200 18006KT P6SM OVC015
     FM261500 22006KT P6SM -SHRA BKN025=



000
FTUS42 KRAH 251738
TAFFAY
TAF
KFAY 251738Z 2518/2618 22006KT P6SM SCT250
     FM261200 19007KT P6SM BKN080
     FM261600 22007KT P6SM BKN050=



000
FTUS42 KRAH 251738
TAFINT
TAF
KINT 251738Z 2518/2618 19004KT P6SM SCT250
     FM260000 17006KT P6SM BKN100
     FM260900 14006KT 5SM -SHRA BR OVC007
     FM261500 33006KT P6SM -SHRA OVC012=



000
FTUS42 KRAH 251738
TAFRWI
TAF
KRWI 251738Z 2518/2618 22006KT P6SM SKC
     FM260600 00000KT 4SM BR BKN080
     FM261200 21006KT P6SM OVC050=



000
FTUS42 KRAH 251738
TAFINT
TAF
KINT 251738Z 2518/2618 19004KT P6SM SCT250
     FM260000 17006KT P6SM BKN100
     FM260900 14006KT 5SM -SHRA BR OVC007
     FM261500 33006KT P6SM -SHRA OVC012=



000
FTUS42 KRAH 251738
TAFFAY
TAF
KFAY 251738Z 2518/2618 22006KT P6SM SCT250
     FM261200 19007KT P6SM BKN080
     FM261600 22007KT P6SM BKN050=



000
FTUS42 KRAH 251738
TAFRDU
TAF
KRDU 251738Z 2518/2618 22007KT P6SM SKC
     FM260600 19008KT P6SM OVC100
     FM261200 18006KT P6SM OVC015
     FM261500 22006KT P6SM -SHRA BKN025=



000
FTUS42 KRAH 251738
TAFRWI
TAF
KRWI 251738Z 2518/2618 22006KT P6SM SKC
     FM260600 00000KT 4SM BR BKN080
     FM261200 21006KT P6SM OVC050=



000
FTUS42 KRAH 251738
TAFGSO
TAF
KGSO 251738Z 2518/2618 20008KT P6SM SCT250
     FM260300 18006KT P6SM OVC100
     FM260900 15005KT P6SM OVC025
     FM261100 21006KT 5SM -SHRA OVC012
     FM261500 33005KT P6SM OVC015=



000
FTUS42 KRAH 251137 CCA
TAFFAY
TAF COR
KFAY 251137Z 2512/2612 22006KT P6SM SCT250=



000
FTUS42 KRAH 251137 CCA
TAFGSO
TAF COR
KGSO 251137Z 2512/2612 20006KT P6SM SCT250
      TEMPO 2521/2524 19006G15KT
     FM260800 21005KT 5SM BR OVC030
     FM261100 23004KT 2SM BR OVC004=



000
FTUS42 KRAH 251137 CCA
TAFRDU
TAF COR
KRDU 251137Z 2512/2612 22006KT P6SM SCT250
     FM261100 20005KT 5SM BR OVC030=



000
FTUS42 KRAH 251137 CCA
TAFINT
TAF COR
KINT 251137Z 2512/2612 20006KT P6SM SCT250
      TEMPO 2521/2524 19006G15KT
     FM260700 19003KT 5SM BR OVC060
     FM260900 23003KT 2SM BR OVC009=



000
FTUS42 KRAH 251137 CCA
TAFGSO
TAF COR
KGSO 251137Z 2512/2612 20006KT P6SM SCT250
      TEMPO 2521/2524 19006G15KT
     FM260800 21005KT 5SM BR OVC030
     FM261100 23004KT 2SM BR OVC004=



000
FTUS42 KRAH 251137 CCA
TAFFAY
TAF COR
KFAY 251137Z 2512/2612 22006KT P6SM SCT250=



000
FTUS42 KRAH 251137 CCA
TAFINT
TAF COR
KINT 251137Z 2512/2612 20006KT P6SM SCT250
      TEMPO 2521/2524 19006G15KT
     FM260700 19003KT 5SM BR OVC060
     FM260900 23003KT 2SM BR OVC009=



000
FTUS42 KRAH 251137 CCA
TAFRWI
TAF COR
KRWI 251137Z 2512/2612 22006KT P6SM SCT250
     FM261100 18003KT 5SM BR OVC060=



000
FTUS42 KRAH 251137 CCA
TAFRDU
TAF COR
KRDU 251137Z 2512/2612 22006KT P6SM SCT250
     FM261100 20005KT 5SM BR OVC030=



000
FTUS42 KRAH 251137 CCA
TAFRWI
TAF COR
KRWI 251137Z 2512/2612 22006KT P6SM SCT250
     FM261100 18003KT 5SM BR OVC060=



000
FTUS42 KRAH 251134
TAFFAY
TAF
KFAY 251134Z 2512/2612 22006KT P6SM SCT250=



000
FTUS42 KRAH 251134
TAFINT
TAF
KINT 251134Z 2512/2612 20006KT P6SM SCT250
      TEMPO 2521/2524 19006G15KT=



000
FTUS42 KRAH 251134
TAFINT
TAF
KINT 251134Z 2512/2612 20006KT P6SM SCT250
      TEMPO 2521/2524 19006G15KT=



000
FTUS42 KRAH 251134
TAFRWI
TAF
KRWI 251134Z 2512/2612 22006KT P6SM SCT250=



000
FTUS42 KRAH 251134
TAFGSO
TAF
KGSO 251134Z 2512/2612 20006KT P6SM SCT250
      TEMPO 2521/2524 19006G15KT=



000
FTUS42 KRAH 251134
TAFRDU
TAF
KRDU 251134Z 2512/2612 22006KT P6SM SCT250=



000
FTUS42 KRAH 251134
TAFFAY
TAF
KFAY 251134Z 2512/2612 22006KT P6SM SCT250=



000
FTUS42 KRAH 251134
TAFRWI
TAF
KRWI 251134Z 2512/2612 22006KT P6SM SCT250=



000
FTUS42 KRAH 251134
TAFRDU
TAF
KRDU 251134Z 2512/2612 22006KT P6SM SCT250=



000
FTUS42 KRAH 251134
TAFGSO
TAF
KGSO 251134Z 2512/2612 20006KT P6SM SCT250
      TEMPO 2521/2524 19006G15KT=



000
FTUS42 KRAH 250843 AAA
TAFRDU
TAF AMD
KRDU 250843Z 2509/2606 00000KT P6SM SKC
     FM251200 22006KT P6SM SCT250=



000
FTUS42 KRAH 250843 AAA
TAFRDU
TAF AMD
KRDU 250843Z 2509/2606 00000KT P6SM SKC
     FM251200 22006KT P6SM SCT250=



000
FTUS42 KRAH 250842 AAA
TAFGSO
TAF AMD
KGSO 250842Z 2509/2606 27006KT P6SM SKC
     FM251200 20006KT P6SM SCT250
      TEMPO 2521/2524 19006G15KT=



000
FTUS42 KRAH 250842 AAA
TAFGSO
TAF AMD
KGSO 250842Z 2509/2606 27006KT P6SM SKC
     FM251200 20006KT P6SM SCT250
      TEMPO 2521/2524 19006G15KT=



000
FTUS42 KRAH 250532
TAFINT
TAF
KINT 250532Z 2506/2606 28004KT P6SM SKC
     FM251200 20006KT P6SM SCT250
      TEMPO 2521/2524 19006G15KT=



000
FTUS42 KRAH 250532
TAFRDU
TAF
KRDU 250532Z 2506/2606 28004KT P6SM SKC
     FM251200 22006KT P6SM SCT250=



000
FTUS42 KRAH 250532
TAFGSO
TAF
KGSO 250532Z 2506/2606 28004KT P6SM SKC
     FM251200 20006KT P6SM SCT250
      TEMPO 2521/2524 19006G15KT=



000
FTUS42 KRAH 250532
TAFRWI
TAF
KRWI 250532Z 2506/2606 27004KT P6SM SKC
     FM251500 22006KT P6SM SCT250=



000
FTUS42 KRAH 250532
TAFFAY
TAF
KFAY 250532Z 2506/2606 27004KT P6SM SKC
     FM251500 22006KT P6SM SCT250=



000
FTUS42 KRAH 250532
TAFGSO
TAF
KGSO 250532Z 2506/2606 28004KT P6SM SKC
     FM251200 20006KT P6SM SCT250
      TEMPO 2521/2524 19006G15KT=



000
FTUS42 KRAH 250532
TAFRWI
TAF
KRWI 250532Z 2506/2606 27004KT P6SM SKC
     FM251500 22006KT P6SM SCT250=



000
FTUS42 KRAH 250532
TAFRDU
TAF
KRDU 250532Z 2506/2606 28004KT P6SM SKC
     FM251200 22006KT P6SM SCT250=



000
FTUS42 KRAH 250532
TAFFAY
TAF
KFAY 250532Z 2506/2606 27004KT P6SM SKC
     FM251500 22006KT P6SM SCT250=



000
FTUS42 KRAH 250532
TAFINT
TAF
KINT 250532Z 2506/2606 28004KT P6SM SKC
     FM251200 20006KT P6SM SCT250
      TEMPO 2521/2524 19006G15KT=



000
FTUS42 KRAH 250203 AAA
TAFRDU
TAF AMD
KRDU 250203Z 2502/2524 28004KT P6SM SKC
     FM251200 22006KT P6SM SCT250=



000
FTUS42 KRAH 250203 AAA
TAFRDU
TAF AMD
KRDU 250203Z 2502/2524 28004KT P6SM SKC
     FM251200 22006KT P6SM SCT250=



000
FTUS42 KRAH 250203 AAA
TAFRDU
TAF AMD
KRDU 250203Z 2502/2524 28004KT P6SM SKC
     FM251200 22006KT P6SM SCT250=



000
FTUS42 KRAH 250203 AAA
TAFRDU
TAF AMD
KRDU 250203Z 2502/2524 28004KT P6SM SKC
     FM251200 22006KT P6SM SCT250=



000
FTUS42 KRAH 250202 AAA
TAFGSO
TAF AMD
KGSO 250202Z 2502/2524 28004KT P6SM SKC
     FM251200 20006KT P6SM SCT250=



000
FTUS42 KRAH 250202 AAA
TAFGSO
TAF AMD
KGSO 250202Z 2502/2524 28004KT P6SM SKC
     FM251200 20006KT P6SM SCT250=



000
FTUS42 KRAH 250202 AAA
TAFGSO
TAF AMD
KGSO 250202Z 2502/2524 28004KT P6SM SKC
     FM251200 20006KT P6SM SCT250=



000
FTUS42 KRAH 250202 AAA
TAFGSO
TAF AMD
KGSO 250202Z 2502/2524 28004KT P6SM SKC
     FM251200 20006KT P6SM SCT250=



    US Dept of Commerce
    National Oceanic and Atmospheric Administration
    National Weather Service
    1325 East West Highway
    Silver Spring, MD 20910
    Page Author: NWS Internet Services Team
Disclaimer
Information Quality
Credits
Glossary
Privacy Policy
Freedom of Information Act (FOIA)
About Us
Career Opportunities